Academy, Texas
Current Conditions -  °F | °C
As of 2:55 AM on Friday 28 Nov 2014 (Local Time) from KTPL Reporting Station
Clear Clear  
Wind Chill: 34°   Ceiling: Unl
Heat Index: 39°   Visibility: 10mi
Dew Point: 28°   Wind: 7mph
Humidity: 65%   Direction: 160°SSE
Pressure: 30.32"   Gusts: NA
Location:  30.9809°N, 97.3415°W
Report Text: KTPL 280855Z AUTO 16006KT 10SM CLR 04/M02 A3032 RMK AO1 57014
Loading
Personal Weather Stations






























Interactive Weather Map New forecast layout! Learn more

10-Day Weather Forecast

Advertisements
Track Severe Weather on mobile